sensor_id;sensor_type;location;lat;lon;timestamp;P1;durP1;ratioP1;P2;durP2;ratioP2
8094;SDS011;4090;49.270;8.696;2022-08-19T00:02:02;16.20;;;10.98;;
8094;SDS011;4090;49.270;8.696;2022-08-19T00:04:43;16.30;;;11.63;;
8094;SDS011;4090;49.270;8.696;2022-08-19T00:07:29;16.63;;;11.50;;
8094;SDS011;4090;49.270;8.696;2022-08-19T00:10:12;15.40;;;10.85;;
8094;SDS011;4090;49.270;8.696;2022-08-19T00:12:55;15.77;;;11.20;;
8094;SDS011;4090;49.270;8.696;2022-08-19T00:15:37;19.70;;;11.93;;
8094;SDS011;4090;49.270;8.696;2022-08-19T00:18:19;17.23;;;12.25;;
8094;SDS011;4090;49.270;8.696;2022-08-19T00:21:01;18.05;;;11.60;;
8094;SDS011;4090;49.270;8.696;2022-08-19T00:23:51;17.15;;;11.63;;
8094;SDS011;4090;49.270;8.696;2022-08-19T00:26:33;16.58;;;11.60;;
8094;SDS011;4090;49.270;8.696;2022-08-19T00:29:17;17.60;;;11.88;;
8094;SDS011;4090;49.270;8.696;2022-08-19T00:32:01;19.48;;;12.10;;
8094;SDS011;4090;49.270;8.696;2022-08-19T00:34:43;16.50;;;12.00;;
8094;SDS011;4090;49.270;8.696;2022-08-19T00:37:24;17.05;;;11.90;;
8094;SDS011;4090;49.270;8.696;2022-08-19T00:40:09;14.73;;;11.40;;
8094;SDS011;4090;49.270;8.696;2022-08-19T00:42:53;16.60;;;11.88;;
8094;SDS011;4090;49.270;8.696;2022-08-19T00:45:35;17.33;;;11.98;;
8094;SDS011;4090;49.270;8.696;2022-08-19T00:48:17;17.85;;;12.35;;
8094;SDS011;4090;49.270;8.696;2022-08-19T00:50:59;16.63;;;11.88;;
8094;SDS011;4090;49.270;8.696;2022-08-19T00:53:42;16.48;;;11.63;;
8094;SDS011;4090;49.270;8.696;2022-08-19T00:56:25;18.27;;;12.13;;
8094;SDS011;4090;49.270;8.696;2022-08-19T00:59:08;18.50;;;12.43;;
8094;SDS011;4090;49.270;8.696;2022-08-19T01:01:50;20.55;;;13.73;;
8094;SDS011;4090;49.270;8.696;2022-08-19T01:04:33;18.75;;;12.77;;
8094;SDS011;4090;49.270;8.696;2022-08-19T01:07:15;18.65;;;12.82;;
8094;SDS011;4090;49.270;8.696;2022-08-19T01:09:57;20.23;;;11.82;;
8094;SDS011;4090;49.270;8.696;2022-08-19T01:12:41;16.73;;;12.30;;
8094;SDS011;4090;49.270;8.696;2022-08-19T01:15:25;18.08;;;12.65;;
8094;SDS011;4090;49.270;8.696;2022-08-19T01:18:11;18.23;;;12.93;;
8094;SDS011;4090;49.270;8.696;2022-08-19T01:20:55;20.10;;;13.18;;
8094;SDS011;4090;49.270;8.696;2022-08-19T01:23:41;20.90;;;13.50;;
8094;SDS011;4090;49.270;8.696;2022-08-19T01:26:24;20.15;;;13.02;;
8094;SDS011;4090;49.270;8.696;2022-08-19T01:29:07;20.25;;;13.68;;
8094;SDS011;4090;49.270;8.696;2022-08-19T01:31:50;20.92;;;13.85;;
8094;SDS011;4090;49.270;8.696;2022-08-19T01:34:33;23.38;;;13.82;;
8094;SDS011;4090;49.270;8.696;2022-08-19T01:37:15;19.67;;;13.35;;
8094;SDS011;4090;49.270;8.696;2022-08-19T01:39:58;20.58;;;13.68;;
8094;SDS011;4090;49.270;8.696;2022-08-19T01:42:41;21.58;;;14.48;;
8094;SDS011;4090;49.270;8.696;2022-08-19T01:45:24;18.60;;;12.77;;
8094;SDS011;4090;49.270;8.696;2022-08-19T01:48:08;20.75;;;13.75;;
8094;SDS011;4090;49.270;8.696;2022-08-19T01:50:50;24.40;;;14.50;;
8094;SDS011;4090;49.270;8.696;2022-08-19T01:53:32;20.63;;;13.70;;
8094;SDS011;4090;49.270;8.696;2022-08-19T01:56:16;19.35;;;13.32;;
8094;SDS011;4090;49.270;8.696;2022-08-19T01:58:59;20.33;;;14.13;;
8094;SDS011;4090;49.270;8.696;2022-08-19T02:01:43;22.70;;;14.75;;
8094;SDS011;4090;49.270;8.696;2022-08-19T02:04:25;18.55;;;13.70;;
8094;SDS011;4090;49.270;8.696;2022-08-19T02:07:07;19.65;;;14.50;;
8094;SDS011;4090;49.270;8.696;2022-08-19T02:09:49;20.75;;;14.77;;
8094;SDS011;4090;49.270;8.696;2022-08-19T02:12:33;21.35;;;14.77;;
8094;SDS011;4090;49.270;8.696;2022-08-19T02:15:15;21.70;;;15.18;;
8094;SDS011;4090;49.270;8.696;2022-08-19T02:17:59;23.42;;;15.02;;
8094;SDS011;4090;49.270;8.696;2022-08-19T02:20:41;22.98;;;15.88;;
8094;SDS011;4090;49.270;8.696;2022-08-19T02:23:24;20.88;;;13.93;;
8094;SDS011;4090;49.270;8.696;2022-08-19T02:26:07;24.85;;;15.57;;
8094;SDS011;4090;49.270;8.696;2022-08-19T02:28:50;19.98;;;14.75;;
8094;SDS011;4090;49.270;8.696;2022-08-19T02:31:32;21.70;;;14.80;;
8094;SDS011;4090;49.270;8.696;2022-08-19T02:34:14;22.25;;;15.30;;
8094;SDS011;4090;49.270;8.696;2022-08-19T02:36:56;21.08;;;15.07;;
8094;SDS011;4090;49.270;8.696;2022-08-19T02:39:39;19.05;;;14.20;;
8094;SDS011;4090;49.270;8.696;2022-08-19T02:42:19;23.88;;;15.65;;
8094;SDS011;4090;49.270;8.696;2022-08-19T02:45:03;22.95;;;15.57;;
8094;SDS011;4090;49.270;8.696;2022-08-19T02:47:46;23.52;;;16.15;;
8094;SDS011;4090;49.270;8.696;2022-08-19T02:50:28;20.88;;;15.30;;
8094;SDS011;4090;49.270;8.696;2022-08-19T02:53:10;21.27;;;15.32;;
8094;SDS011;4090;49.270;8.696;2022-08-19T02:55:52;23.67;;;16.17;;
8094;SDS011;4090;49.270;8.696;2022-08-19T02:58:33;23.70;;;15.65;;
8094;SDS011;4090;49.270;8.696;2022-08-19T03:01:20;22.17;;;15.65;;
8094;SDS011;4090;49.270;8.696;2022-08-19T03:04:04;21.17;;;15.18;;
8094;SDS011;4090;49.270;8.696;2022-08-19T03:06:47;22.20;;;15.95;;
8094;SDS011;4090;49.270;8.696;2022-08-19T03:09:29;25.02;;;16.92;;
8094;SDS011;4090;49.270;8.696;2022-08-19T03:12:11;21.73;;;15.80;;
8094;SDS011;4090;49.270;8.696;2022-08-19T03:14:52;22.45;;;15.40;;
8094;SDS011;4090;49.270;8.696;2022-08-19T03:17:36;20.52;;;15.88;;
8094;SDS011;4090;49.270;8.696;2022-08-19T03:20:18;22.13;;;15.85;;
8094;SDS011;4090;49.270;8.696;2022-08-19T03:22:59;21.63;;;15.80;;
8094;SDS011;4090;49.270;8.696;2022-08-19T03:25:43;22.55;;;16.17;;
8094;SDS011;4090;49.270;8.696;2022-08-19T03:28:26;23.10;;;17.08;;
8094;SDS011;4090;49.270;8.696;2022-08-19T03:31:10;21.38;;;16.48;;
8094;SDS011;4090;49.270;8.696;2022-08-19T03:33:55;24.50;;;17.13;;
8094;SDS011;4090;49.270;8.696;2022-08-19T03:36:37;23.95;;;17.27;;
8094;SDS011;4090;49.270;8.696;2022-08-19T03:39:19;24.92;;;16.35;;
8094;SDS011;4090;49.270;8.696;2022-08-19T03:42:01;24.58;;;17.23;;
8094;SDS011;4090;49.270;8.696;2022-08-19T03:44:44;23.77;;;17.65;;
8094;SDS011;4090;49.270;8.696;2022-08-19T03:47:26;25.40;;;17.95;;
8094;SDS011;4090;49.270;8.696;2022-08-19T03:50:09;23.15;;;16.20;;
8094;SDS011;4090;49.270;8.696;2022-08-19T03:52:51;23.80;;;16.75;;
8094;SDS011;4090;49.270;8.696;2022-08-19T03:55:33;20.55;;;15.90;;
8094;SDS011;4090;49.270;8.696;2022-08-19T03:58:15;26.88;;;16.75;;
8094;SDS011;4090;49.270;8.696;2022-08-19T04:00:57;22.73;;;16.23;;
8094;SDS011;4090;49.270;8.696;2022-08-19T04:03:39;24.50;;;17.52;;
8094;SDS011;4090;49.270;8.696;2022-08-19T04:06:23;25.45;;;17.40;;
8094;SDS011;4090;49.270;8.696;2022-08-19T04:09:07;20.52;;;15.65;;
8094;SDS011;4090;49.270;8.696;2022-08-19T04:11:51;26.52;;;17.98;;
8094;SDS011;4090;49.270;8.696;2022-08-19T04:14:34;24.08;;;16.63;;
8094;SDS011;4090;49.270;8.696;2022-08-19T04:17:16;24.85;;;17.63;;
8094;SDS011;4090;49.270;8.696;2022-08-19T04:19:58;24.90;;;17.83;;
8094;SDS011;4090;49.270;8.696;2022-08-19T04:22:41;23.15;;;17.05;;
8094;SDS011;4090;49.270;8.696;2022-08-19T04:25:23;22.75;;;17.10;;
8094;SDS011;4090;49.270;8.696;2022-08-19T04:28:05;23.45;;;16.65;;
8094;SDS011;4090;49.270;8.696;2022-08-19T04:30:50;26.33;;;18.27;;
8094;SDS011;4090;49.270;8.696;2022-08-19T04:33:34;24.67;;;17.02;;
8094;SDS011;4090;49.270;8.696;2022-08-19T04:36:16;24.27;;;17.15;;
8094;SDS011;4090;49.270;8.696;2022-08-19T04:39:03;23.67;;;17.00;;
8094;SDS011;4090;49.270;8.696;2022-08-19T04:41:47;24.83;;;16.92;;
8094;SDS011;4090;49.270;8.696;2022-08-19T04:44:46;22.88;;;16.30;;
8094;SDS011;4090;49.270;8.696;2022-08-19T04:47:28;24.20;;;17.25;;
8094;SDS011;4090;49.270;8.696;2022-08-19T04:50:11;22.42;;;17.65;;
8094;SDS011;4090;49.270;8.696;2022-08-19T04:52:52;23.52;;;17.00;;
8094;SDS011;4090;49.270;8.696;2022-08-19T04:55:39;23.92;;;17.27;;
8094;SDS011;4090;49.270;8.696;2022-08-19T04:58:22;24.35;;;17.52;;
8094;SDS011;4090;49.270;8.696;2022-08-19T05:01:05;27.70;;;18.63;;
8094;SDS011;4090;49.270;8.696;2022-08-19T05:03:46;25.42;;;17.73;;
8094;SDS011;4090;49.270;8.696;2022-08-19T05:06:29;23.88;;;16.33;;
8094;SDS011;4090;49.270;8.696;2022-08-19T05:09:13;23.67;;;16.98;;
8094;SDS011;4090;49.270;8.696;2022-08-19T05:11:57;25.98;;;17.95;;
8094;SDS011;4090;49.270;8.696;2022-08-19T05:14:40;26.20;;;18.23;;
8094;SDS011;4090;49.270;8.696;2022-08-19T05:17:22;21.45;;;16.63;;
8094;SDS011;4090;49.270;8.696;2022-08-19T05:20:04;22.83;;;16.88;;
8094;SDS011;4090;49.270;8.696;2022-08-19T05:23:05;25.02;;;17.90;;
8094;SDS011;4090;49.270;8.696;2022-08-19T05:25:47;25.20;;;17.63;;
8094;SDS011;4090;49.270;8.696;2022-08-19T05:28:31;24.90;;;17.67;;
8094;SDS011;4090;49.270;8.696;2022-08-19T05:31:13;25.92;;;17.75;;
8094;SDS011;4090;49.270;8.696;2022-08-19T05:33:55;25.33;;;17.75;;
8094;SDS011;4090;49.270;8.696;2022-08-19T05:36:39;25.98;;;18.42;;
8094;SDS011;4090;49.270;8.696;2022-08-19T05:39:24;26.90;;;17.30;;
8094;SDS011;4090;49.270;8.696;2022-08-19T05:42:09;23.02;;;16.83;;
8094;SDS011;4090;49.270;8.696;2022-08-19T05:44:53;23.23;;;17.15;;
8094;SDS011;4090;49.270;8.696;2022-08-19T05:47:36;23.23;;;16.42;;
8094;SDS011;4090;49.270;8.696;2022-08-19T05:50:18;25.88;;;17.38;;
8094;SDS011;4090;49.270;8.696;2022-08-19T05:53:00;26.00;;;17.63;;
8094;SDS011;4090;49.270;8.696;2022-08-19T05:55:42;25.55;;;16.98;;
8094;SDS011;4090;49.270;8.696;2022-08-19T05:58:24;25.75;;;17.05;;
8094;SDS011;4090;49.270;8.696;2022-08-19T06:01:10;24.83;;;16.27;;
8094;SDS011;4090;49.270;8.696;2022-08-19T06:03:53;27.85;;;18.15;;
8094;SDS011;4090;49.270;8.696;2022-08-19T06:06:35;27.27;;;17.95;;
8094;SDS011;4090;49.270;8.696;2022-08-19T06:09:18;24.60;;;17.35;;
8094;SDS011;4090;49.270;8.696;2022-08-19T06:12:01;24.60;;;17.48;;
8094;SDS011;4090;49.270;8.696;2022-08-19T06:14:44;23.85;;;17.20;;
8094;SDS011;4090;49.270;8.696;2022-08-19T06:17:27;24.60;;;16.02;;
8094;SDS011;4090;49.270;8.696;2022-08-19T06:20:11;23.30;;;16.08;;
8094;SDS011;4090;49.270;8.696;2022-08-19T06:22:54;22.70;;;16.65;;
8094;SDS011;4090;49.270;8.696;2022-08-19T06:25:36;20.75;;;15.02;;
8094;SDS011;4090;49.270;8.696;2022-08-19T06:28:21;23.65;;;16.40;;
8094;SDS011;4090;49.270;8.696;2022-08-19T06:31:05;25.90;;;16.05;;
8094;SDS011;4090;49.270;8.696;2022-08-19T06:33:49;22.45;;;16.33;;
8094;SDS011;4090;49.270;8.696;2022-08-19T06:36:32;20.55;;;15.23;;
8094;SDS011;4090;49.270;8.696;2022-08-19T06:39:16;22.63;;;14.77;;
8094;SDS011;4090;49.270;8.696;2022-08-19T06:42:02;22.05;;;15.43;;
8094;SDS011;4090;49.270;8.696;2022-08-19T06:44:47;22.40;;;15.73;;
8094;SDS011;4090;49.270;8.696;2022-08-19T06:47:29;22.13;;;15.80;;
8094;SDS011;4090;49.270;8.696;2022-08-19T06:50:13;20.15;;;14.75;;
8094;SDS011;4090;49.270;8.696;2022-08-19T06:52:55;20.95;;;14.90;;
8094;SDS011;4090;49.270;8.696;2022-08-19T06:55:37;18.30;;;14.45;;
8094;SDS011;4090;49.270;8.696;2022-08-19T06:58:20;21.85;;;15.02;;
8094;SDS011;4090;49.270;8.696;2022-08-19T07:01:02;22.73;;;15.15;;
8094;SDS011;4090;49.270;8.696;2022-08-19T07:03:44;20.33;;;14.77;;
8094;SDS011;4090;49.270;8.696;2022-08-19T07:06:28;20.48;;;13.82;;
8094;SDS011;4090;49.270;8.696;2022-08-19T07:09:12;20.08;;;14.77;;
8094;SDS011;4090;49.270;8.696;2022-08-19T07:11:56;16.95;;;13.05;;
8094;SDS011;4090;49.270;8.696;2022-08-19T07:14:38;18.70;;;13.38;;
8094;SDS011;4090;49.270;8.696;2022-08-19T07:17:20;19.13;;;13.30;;
8094;SDS011;4090;49.270;8.696;2022-08-19T07:20:02;17.95;;;12.82;;
8094;SDS011;4090;49.270;8.696;2022-08-19T07:22:48;18.27;;;12.85;;
8094;SDS011;4090;49.270;8.696;2022-08-19T07:25:30;19.17;;;13.00;;
8094;SDS011;4090;49.270;8.696;2022-08-19T07:28:12;18.30;;;12.90;;
8094;SDS011;4090;49.270;8.696;2022-08-19T07:30:53;19.75;;;13.23;;
8094;SDS011;4090;49.270;8.696;2022-08-19T07:33:35;18.13;;;12.88;;
8094;SDS011;4090;49.270;8.696;2022-08-19T07:36:19;17.83;;;11.73;;
8094;SDS011;4090;49.270;8.696;2022-08-19T07:39:06;16.38;;;12.27;;
8094;SDS011;4090;49.270;8.696;2022-08-19T07:41:49;16.67;;;11.95;;
8094;SDS011;4090;49.270;8.696;2022-08-19T07:44:32;17.80;;;12.15;;
8094;SDS011;4090;49.270;8.696;2022-08-19T07:47:14;17.33;;;10.98;;
8094;SDS011;4090;49.270;8.696;2022-08-19T07:49:57;15.20;;;11.55;;
8094;SDS011;4090;49.270;8.696;2022-08-19T07:52:39;14.27;;;10.77;;
8094;SDS011;4090;49.270;8.696;2022-08-19T07:55:26;14.57;;;10.90;;
8094;SDS011;4090;49.270;8.696;2022-08-19T07:58:08;17.70;;;11.13;;
8094;SDS011;4090;49.270;8.696;2022-08-19T08:00:50;18.80;;;10.77;;
8094;SDS011;4090;49.270;8.696;2022-08-19T08:03:32;19.23;;;11.18;;
8094;SDS011;4090;49.270;8.696;2022-08-19T08:06:32;14.25;;;10.38;;
8094;SDS011;4090;49.270;8.696;2022-08-19T08:09:33;15.63;;;11.68;;
8094;SDS011;4090;49.270;8.696;2022-08-19T08:12:19;14.93;;;10.77;;
8094;SDS011;4090;49.270;8.696;2022-08-19T08:15:06;14.65;;;11.32;;
8094;SDS011;4090;49.270;8.696;2022-08-19T08:17:50;16.92;;;10.70;;
8094;SDS011;4090;49.270;8.696;2022-08-19T08:20:32;17.52;;;11.63;;
8094;SDS011;4090;49.270;8.696;2022-08-19T08:23:14;16.60;;;11.32;;
8094;SDS011;4090;49.270;8.696;2022-08-19T08:26:05;16.42;;;11.07;;
8094;SDS011;4090;49.270;8.696;2022-08-19T08:28:48;15.23;;;11.98;;
8094;SDS011;4090;49.270;8.696;2022-08-19T08:31:30;14.85;;;11.18;;
8094;SDS011;4090;49.270;8.696;2022-08-19T08:34:14;14.63;;;10.48;;
8094;SDS011;4090;49.270;8.696;2022-08-19T08:36:56;14.95;;;10.18;;
8094;SDS011;4090;49.270;8.696;2022-08-19T08:39:38;12.30;;;9.10;;
8094;SDS011;4090;49.270;8.696;2022-08-19T08:42:20;13.88;;;10.57;;
8094;SDS011;4090;49.270;8.696;2022-08-19T08:45:10;14.88;;;10.70;;
8094;SDS011;4090;49.270;8.696;2022-08-19T08:47:55;13.18;;;9.38;;
8094;SDS011;4090;49.270;8.696;2022-08-19T08:50:42;14.65;;;9.38;;
8094;SDS011;4090;49.270;8.696;2022-08-19T08:53:28;12.52;;;9.63;;
8094;SDS011;4090;49.270;8.696;2022-08-19T08:56:11;13.40;;;10.07;;
8094;SDS011;4090;49.270;8.696;2022-08-19T08:58:56;12.15;;;9.68;;
8094;SDS011;4090;49.270;8.696;2022-08-19T09:01:41;13.23;;;8.73;;
8094;SDS011;4090;49.270;8.696;2022-08-19T09:04:23;12.18;;;8.57;;
8094;SDS011;4090;49.270;8.696;2022-08-19T09:07:12;11.55;;;8.40;;
8094;SDS011;4090;49.270;8.696;2022-08-19T09:10:04;8.75;;;7.32;;
8094;SDS011;4090;49.270;8.696;2022-08-19T09:12:59;9.70;;;7.85;;
8094;SDS011;4090;49.270;8.696;2022-08-19T09:15:47;10.32;;;7.07;;
8094;SDS011;4090;49.270;8.696;2022-08-19T09:18:40;9.07;;;7.15;;
8094;SDS011;4090;49.270;8.696;2022-08-19T09:21:24;9.32;;;7.40;;
8094;SDS011;4090;49.270;8.696;2022-08-19T09:24:07;10.88;;;6.82;;
8094;SDS011;4090;49.270;8.696;2022-08-19T09:26:49;10.70;;;7.53;;
8094;SDS011;4090;49.270;8.696;2022-08-19T09:29:31;10.90;;;7.20;;
8094;SDS011;4090;49.270;8.696;2022-08-19T09:32:12;11.20;;;6.35;;
8094;SDS011;4090;49.270;8.696;2022-08-19T09:34:56;8.35;;;6.60;;
8094;SDS011;4090;49.270;8.696;2022-08-19T09:37:38;6.82;;;5.70;;
8094;SDS011;4090;49.270;8.696;2022-08-19T09:40:20;9.70;;;6.25;;
8094;SDS011;4090;49.270;8.696;2022-08-19T09:43:02;8.57;;;6.22;;
8094;SDS011;4090;49.270;8.696;2022-08-19T09:45:45;9.55;;;6.50;;
8094;SDS011;4090;49.270;8.696;2022-08-19T09:48:27;11.43;;;6.50;;
8094;SDS011;4090;49.270;8.696;2022-08-19T09:51:12;7.70;;;5.80;;
8094;SDS011;4090;49.270;8.696;2022-08-19T09:53:58;7.38;;;5.95;;
8094;SDS011;4090;49.270;8.696;2022-08-19T09:56:42;8.00;;;6.05;;
8094;SDS011;4090;49.270;8.696;2022-08-19T09:59:24;9.38;;;5.88;;
8094;SDS011;4090;49.270;8.696;2022-08-19T10:02:06;7.97;;;6.22;;
8094;SDS011;4090;49.270;8.696;2022-08-19T10:04:49;7.30;;;6.13;;
8094;SDS011;4090;49.270;8.696;2022-08-19T10:07:50;7.00;;;5.85;;
8094;SDS011;4090;49.270;8.696;2022-08-19T10:10:34;7.05;;;5.63;;
8094;SDS011;4090;49.270;8.696;2022-08-19T10:13:18;7.57;;;5.95;;
8094;SDS011;4090;49.270;8.696;2022-08-19T10:16:06;6.50;;;5.60;;
8094;SDS011;4090;49.270;8.696;2022-08-19T10:18:49;8.73;;;5.50;;
8094;SDS011;4090;49.270;8.696;2022-08-19T10:21:31;6.13;;;5.53;;
8094;SDS011;4090;49.270;8.696;2022-08-19T10:24:16;6.03;;;5.38;;
8094;SDS011;4090;49.270;8.696;2022-08-19T10:27:00;7.55;;;5.50;;
8094;SDS011;4090;49.270;8.696;2022-08-19T10:29:43;7.57;;;5.22;;
8094;SDS011;4090;49.270;8.696;2022-08-19T10:32:25;5.93;;;5.32;;
8094;SDS011;4090;49.270;8.696;2022-08-19T10:35:09;8.43;;;5.28;;
8094;SDS011;4090;49.270;8.696;2022-08-19T10:37:51;8.98;;;5.22;;
8094;SDS011;4090;49.270;8.696;2022-08-19T10:40:34;8.23;;;5.20;;
8094;SDS011;4090;49.270;8.696;2022-08-19T10:43:16;6.20;;;5.40;;
8094;SDS011;4090;49.270;8.696;2022-08-19T10:45:58;5.93;;;5.10;;
8094;SDS011;4090;49.270;8.696;2022-08-19T10:48:40;7.20;;;5.43;;
8094;SDS011;4090;49.270;8.696;2022-08-19T10:51:22;6.20;;;5.57;;
8094;SDS011;4090;49.270;8.696;2022-08-19T10:54:21;7.20;;;5.55;;
8094;SDS011;4090;49.270;8.696;2022-08-19T10:57:06;6.22;;;5.25;;
8094;SDS011;4090;49.270;8.696;2022-08-19T10:59:47;7.18;;;5.15;;
8094;SDS011;4090;49.270;8.696;2022-08-19T11:02:29;7.65;;;5.65;;
8094;SDS011;4090;49.270;8.696;2022-08-19T11:05:12;6.25;;;4.70;;
8094;SDS011;4090;49.270;8.696;2022-08-19T11:07:54;6.10;;;4.88;;
8094;SDS011;4090;49.270;8.696;2022-08-19T11:10:36;5.32;;;4.82;;
8094;SDS011;4090;49.270;8.696;2022-08-19T11:13:19;5.90;;;5.30;;
8094;SDS011;4090;49.270;8.696;2022-08-19T11:16:03;7.25;;;5.13;;
8094;SDS011;4090;49.270;8.696;2022-08-19T11:18:48;5.93;;;4.78;;
8094;SDS011;4090;49.270;8.696;2022-08-19T11:21:32;5.05;;;4.55;;
8094;SDS011;4090;49.270;8.696;2022-08-19T11:24:16;5.40;;;4.90;;
8094;SDS011;4090;49.270;8.696;2022-08-19T11:27:01;6.18;;;4.72;;
8094;SDS011;4090;49.270;8.696;2022-08-19T11:29:46;5.50;;;4.50;;
8094;SDS011;4090;49.270;8.696;2022-08-19T11:32:28;6.30;;;5.47;;
8094;SDS011;4090;49.270;8.696;2022-08-19T11:35:10;7.07;;;5.15;;
8094;SDS011;4090;49.270;8.696;2022-08-19T11:37:52;6.47;;;5.10;;
8094;SDS011;4090;49.270;8.696;2022-08-19T11:40:33;9.50;;;6.20;;
8094;SDS011;4090;49.270;8.696;2022-08-19T11:43:15;5.88;;;5.28;;
8094;SDS011;4090;49.270;8.696;2022-08-19T11:45:59;6.22;;;5.63;;
8094;SDS011;4090;49.270;8.696;2022-08-19T11:48:44;7.75;;;6.40;;
8094;SDS011;4090;49.270;8.696;2022-08-19T11:51:26;8.13;;;6.50;;
8094;SDS011;4090;49.270;8.696;2022-08-19T11:54:09;7.70;;;7.00;;
8094;SDS011;4090;49.270;8.696;2022-08-19T11:56:52;9.50;;;7.22;;
8094;SDS011;4090;49.270;8.696;2022-08-19T11:59:34;7.30;;;6.60;;
8094;SDS011;4090;49.270;8.696;2022-08-19T12:02:17;7.88;;;6.70;;
8094;SDS011;4090;49.270;8.696;2022-08-19T12:05:00;7.88;;;7.18;;
8094;SDS011;4090;49.270;8.696;2022-08-19T12:07:43;8.80;;;8.00;;
8094;SDS011;4090;49.270;8.696;2022-08-19T12:10:26;9.30;;;7.50;;
8094;SDS011;4090;49.270;8.696;2022-08-19T12:13:08;8.05;;;6.70;;
8094;SDS011;4090;49.270;8.696;2022-08-19T12:15:50;7.28;;;6.50;;
8094;SDS011;4090;49.270;8.696;2022-08-19T12:18:34;8.50;;;7.65;;
8094;SDS011;4090;49.270;8.696;2022-08-19T12:21:17;8.30;;;7.50;;
8094;SDS011;4090;49.270;8.696;2022-08-19T12:24:03;8.13;;;6.78;;
8094;SDS011;4090;49.270;8.696;2022-08-19T12:26:46;7.95;;;7.25;;
8094;SDS011;4090;49.270;8.696;2022-08-19T12:29:28;7.95;;;7.15;;
8094;SDS011;4090;49.270;8.696;2022-08-19T12:32:10;7.30;;;6.40;;
8094;SDS011;4090;49.270;8.696;2022-08-19T12:34:53;7.35;;;6.10;;
8094;SDS011;4090;49.270;8.696;2022-08-19T12:37:35;10.23;;;6.60;;
8094;SDS011;4090;49.270;8.696;2022-08-19T12:40:17;6.85;;;5.90;;
8094;SDS011;4090;49.270;8.696;2022-08-19T12:42:59;8.65;;;6.38;;
8094;SDS011;4090;49.270;8.696;2022-08-19T12:45:41;7.20;;;6.18;;
8094;SDS011;4090;49.270;8.696;2022-08-19T12:48:23;6.82;;;6.05;;
8094;SDS011;4090;49.270;8.696;2022-08-19T12:51:07;6.32;;;5.72;;
8094;SDS011;4090;49.270;8.696;2022-08-19T12:53:50;6.60;;;6.00;;
8094;SDS011;4090;49.270;8.696;2022-08-19T12:56:32;7.55;;;6.75;;
8094;SDS011;4090;49.270;8.696;2022-08-19T12:59:14;7.65;;;6.57;;
8094;SDS011;4090;49.270;8.696;2022-08-19T13:01:57;8.02;;;6.80;;
8094;SDS011;4090;49.270;8.696;2022-08-19T13:04:39;8.02;;;6.30;;
8094;SDS011;4090;49.270;8.696;2022-08-19T13:07:23;6.90;;;6.30;;
8094;SDS011;4090;49.270;8.696;2022-08-19T13:10:05;6.93;;;6.30;;
8094;SDS011;4090;49.270;8.696;2022-08-19T13:12:50;6.20;;;5.60;;
8094;SDS011;4090;49.270;8.696;2022-08-19T13:15:33;7.93;;;6.07;;
8094;SDS011;4090;49.270;8.696;2022-08-19T13:18:16;6.32;;;5.72;;
8094;SDS011;4090;49.270;8.696;2022-08-19T13:21:01;6.85;;;6.25;;
8094;SDS011;4090;49.270;8.696;2022-08-19T13:23:46;8.10;;;5.60;;
8094;SDS011;4090;49.270;8.696;2022-08-19T13:26:28;6.70;;;6.10;;
8094;SDS011;4090;49.270;8.696;2022-08-19T13:29:11;8.75;;;5.50;;
8094;SDS011;4090;49.270;8.696;2022-08-19T13:32:10;6.32;;;5.50;;
8094;SDS011;4090;49.270;8.696;2022-08-19T13:35:10;6.57;;;5.72;;
8094;SDS011;4090;49.270;8.696;2022-08-19T13:37:52;5.50;;;5.00;;
8094;SDS011;4090;49.270;8.696;2022-08-19T13:40:35;5.43;;;4.88;;
8094;SDS011;4090;49.270;8.696;2022-08-19T13:43:18;5.55;;;4.60;;
8094;SDS011;4090;49.270;8.696;2022-08-19T13:46:08;4.90;;;4.43;;
8094;SDS011;4090;49.270;8.696;2022-08-19T13:48:53;6.85;;;4.88;;
8094;SDS011;4090;49.270;8.696;2022-08-19T13:51:36;5.10;;;4.65;;
8094;SDS011;4090;49.270;8.696;2022-08-19T13:54:19;4.80;;;4.40;;
8094;SDS011;4090;49.270;8.696;2022-08-19T13:57:03;7.82;;;4.65;;
8094;SDS011;4090;49.270;8.696;2022-08-19T13:59:45;4.60;;;4.20;;
8094;SDS011;4090;49.270;8.696;2022-08-19T14:02:27;5.05;;;4.55;;
8094;SDS011;4090;49.270;8.696;2022-08-19T14:05:09;5.20;;;4.68;;
8094;SDS011;4090;49.270;8.696;2022-08-19T14:07:53;5.38;;;4.88;;
8094;SDS011;4090;49.270;8.696;2022-08-19T14:10:35;5.35;;;4.43;;
8094;SDS011;4090;49.270;8.696;2022-08-19T14:13:19;5.55;;;4.57;;
8094;SDS011;4090;49.270;8.696;2022-08-19T14:16:06;4.80;;;4.40;;
8094;SDS011;4090;49.270;8.696;2022-08-19T14:18:49;4.72;;;4.32;;
8094;SDS011;4090;49.270;8.696;2022-08-19T14:21:31;5.20;;;4.68;;
8094;SDS011;4090;49.270;8.696;2022-08-19T14:24:13;4.63;;;4.22;;
8094;SDS011;4090;49.270;8.696;2022-08-19T14:26:55;4.82;;;4.40;;
8094;SDS011;4090;49.270;8.696;2022-08-19T14:29:40;5.40;;;4.60;;
8094;SDS011;4090;49.270;8.696;2022-08-19T14:32:22;6.13;;;4.50;;
8094;SDS011;4090;49.270;8.696;2022-08-19T14:35:07;6.55;;;4.65;;
8094;SDS011;4090;49.270;8.696;2022-08-19T14:37:49;6.68;;;4.55;;
8094;SDS011;4090;49.270;8.696;2022-08-19T14:40:34;7.18;;;4.93;;
8094;SDS011;4090;49.270;8.696;2022-08-19T14:43:15;4.80;;;4.20;;
8094;SDS011;4090;49.270;8.696;2022-08-19T14:45:59;5.35;;;4.35;;
8094;SDS011;4090;49.270;8.696;2022-08-19T14:48:41;4.90;;;4.50;;
8094;SDS011;4090;49.270;8.696;2022-08-19T14:51:23;4.78;;;4.32;;
8094;SDS011;4090;49.270;8.696;2022-08-19T14:54:06;4.97;;;4.30;;
8094;SDS011;4090;49.270;8.696;2022-08-19T14:56:48;5.15;;;3.95;;
8094;SDS011;4090;49.270;8.696;2022-08-19T14:59:30;5.20;;;4.70;;
8094;SDS011;4090;49.270;8.696;2022-08-19T15:02:15;5.93;;;4.32;;
8094;SDS011;4090;49.270;8.696;2022-08-19T15:04:56;4.05;;;3.65;;
8094;SDS011;4090;49.270;8.696;2022-08-19T15:07:39;4.65;;;4.07;;
8094;SDS011;4090;49.270;8.696;2022-08-19T15:10:21;4.53;;;4.13;;
8094;SDS011;4090;49.270;8.696;2022-08-19T15:13:03;7.55;;;4.60;;
8094;SDS011;4090;49.270;8.696;2022-08-19T15:15:46;5.38;;;4.00;;
8094;SDS011;4090;49.270;8.696;2022-08-19T15:18:30;9.70;;;4.40;;
8094;SDS011;4090;49.270;8.696;2022-08-19T15:21:13;9.23;;;4.60;;
8094;SDS011;4090;49.270;8.696;2022-08-19T15:23:58;4.40;;;4.00;;
8094;SDS011;4090;49.270;8.696;2022-08-19T15:26:40;5.30;;;4.30;;
8094;SDS011;4090;49.270;8.696;2022-08-19T15:29:22;5.03;;;3.90;;
8094;SDS011;4090;49.270;8.696;2022-08-19T15:32:05;4.18;;;3.78;;
8094;SDS011;4090;49.270;8.696;2022-08-19T15:34:50;6.00;;;3.97;;
8094;SDS011;4090;49.270;8.696;2022-08-19T15:37:32;3.90;;;3.60;;
8094;SDS011;4090;49.270;8.696;2022-08-19T15:40:14;4.82;;;4.18;;
8094;SDS011;4090;49.270;8.696;2022-08-19T15:42:56;4.45;;;3.63;;
8094;SDS011;4090;49.270;8.696;2022-08-19T15:45:38;4.85;;;3.63;;
8094;SDS011;4090;49.270;8.696;2022-08-19T15:48:21;4.15;;;3.75;;
8094;SDS011;4090;49.270;8.696;2022-08-19T15:51:04;5.68;;;3.92;;
8094;SDS011;4090;49.270;8.696;2022-08-19T15:53:46;4.03;;;3.65;;
8094;SDS011;4090;49.270;8.696;2022-08-19T15:56:28;7.68;;;4.03;;
8094;SDS011;4090;49.270;8.696;2022-08-19T15:59:24;5.03;;;3.95;;
8094;SDS011;4090;49.270;8.696;2022-08-19T16:02:25;7.97;;;4.00;;
8094;SDS011;4090;49.270;8.696;2022-08-19T16:05:26;4.70;;;3.72;;
8094;SDS011;4090;49.270;8.696;2022-08-19T16:08:27;5.10;;;3.60;;
8094;SDS011;4090;49.270;8.696;2022-08-19T16:11:09;5.22;;;4.00;;
8094;SDS011;4090;49.270;8.696;2022-08-19T16:13:53;4.30;;;3.85;;
8094;SDS011;4090;49.270;8.696;2022-08-19T16:16:36;4.05;;;3.65;;
8094;SDS011;4090;49.270;8.696;2022-08-19T16:19:19;4.95;;;4.07;;
8094;SDS011;4090;49.270;8.696;2022-08-19T16:22:01;4.55;;;4.00;;
8094;SDS011;4090;49.270;8.696;2022-08-19T16:24:44;4.45;;;3.60;;
8094;SDS011;4090;49.270;8.696;2022-08-19T16:27:27;5.90;;;3.90;;
8094;SDS011;4090;49.270;8.696;2022-08-19T16:30:09;6.00;;;4.28;;
8094;SDS011;4090;49.270;8.696;2022-08-19T16:32:51;4.18;;;3.60;;
8094;SDS011;4090;49.270;8.696;2022-08-19T16:35:33;4.05;;;3.72;;
8094;SDS011;4090;49.270;8.696;2022-08-19T16:38:15;4.93;;;3.67;;
8094;SDS011;4090;49.270;8.696;2022-08-19T16:40:58;4.53;;;4.13;;